sensor_id;sensor_type;location;lat;lon;timestamp;temperature;humidity
32640;DHT22;19049;52.524;11.468;2022-12-20T00:01:30;6.40;99.40
32640;DHT22;19049;52.524;11.468;2022-12-20T00:03:58;6.30;99.20
32640;DHT22;19049;52.524;11.468;2022-12-20T00:06:24;6.30;99.10
32640;DHT22;19049;52.524;11.468;2022-12-20T00:08:59;6.20;99.00
32640;DHT22;19049;52.524;11.468;2022-12-20T00:11:28;6.10;98.90
32640;DHT22;19049;52.524;11.468;2022-12-20T00:13:54;6.00;98.90
32640;DHT22;19049;52.524;11.468;2022-12-20T00:16:22;5.80;98.80
32640;DHT22;19049;52.524;11.468;2022-12-20T00:18:53;5.80;98.80
32640;DHT22;19049;52.524;11.468;2022-12-20T00:21:19;5.60;98.70
32640;DHT22;19049;52.524;11.468;2022-12-20T00:23:44;5.50;98.70
32640;DHT22;19049;52.524;11.468;2022-12-20T00:26:17;5.40;98.90
32640;DHT22;19049;52.524;11.468;2022-12-20T00:28:43;5.30;99.20
32640;DHT22;19049;52.524;11.468;2022-12-20T00:31:11;5.30;99.30
32640;DHT22;19049;52.524;11.468;2022-12-20T00:33:38;5.30;99.40
32640;DHT22;19049;52.524;11.468;2022-12-20T00:36:06;5.20;99.30
32640;DHT22;19049;52.524;11.468;2022-12-20T00:38:33;5.20;99.40
32640;DHT22;19049;52.524;11.468;2022-12-20T00:41:08;5.20;99.40
32640;DHT22;19049;52.524;11.468;2022-12-20T00:43:37;5.10;99.40
32640;DHT22;19049;52.524;11.468;2022-12-20T00:46:04;5.10;99.40
32640;DHT22;19049;52.524;11.468;2022-12-20T00:48:32;5.00;99.60
32640;DHT22;19049;52.524;11.468;2022-12-20T00:51:06;5.00;99.90
32640;DHT22;19049;52.524;11.468;2022-12-20T00:53:32;5.00;99.90
32640;DHT22;19049;52.524;11.468;2022-12-20T00:55:59;5.10;99.90
32640;DHT22;19049;52.524;11.468;2022-12-20T00:58:25;5.20;99.90
32640;DHT22;19049;52.524;11.468;2022-12-20T01:00:52;5.20;99.90
32640;DHT22;19049;52.524;11.468;2022-12-20T01:03:18;5.30;99.90
32640;DHT22;19049;52.524;11.468;2022-12-20T01:06:02;5.30;99.90
32640;DHT22;19049;52.524;11.468;2022-12-20T01:08:29;5.30;99.90
32640;DHT22;19049;52.524;11.468;2022-12-20T01:11:02;5.40;99.90
32640;DHT22;19049;52.524;11.468;2022-12-20T01:13:29;5.40;99.90
32640;DHT22;19049;52.524;11.468;2022-12-20T01:15:55;5.40;99.90
32640;DHT22;19049;52.524;11.468;2022-12-20T01:18:21;5.40;99.90
32640;DHT22;19049;52.524;11.468;2022-12-20T01:21:03;5.40;99.90
32640;DHT22;19049;52.524;11.468;2022-12-20T01:23:29;5.40;99.90
32640;DHT22;19049;52.524;11.468;2022-12-20T01:25:57;5.40;99.90
32640;DHT22;19049;52.524;11.468;2022-12-20T01:28:23;5.40;99.90
32640;DHT22;19049;52.524;11.468;2022-12-20T01:30:49;5.40;99.90
32640;DHT22;19049;52.524;11.468;2022-12-20T01:33:14;5.50;99.90
32640;DHT22;19049;52.524;11.468;2022-12-20T01:35:40;5.50;99.90
32640;DHT22;19049;52.524;11.468;2022-12-20T01:38:06;5.60;99.90
32640;DHT22;19049;52.524;11.468;2022-12-20T01:40:38;5.70;99.90
32640;DHT22;19049;52.524;11.468;2022-12-20T01:43:03;5.80;99.90
32640;DHT22;19049;52.524;11.468;2022-12-20T01:45:30;5.80;99.90
32640;DHT22;19049;52.524;11.468;2022-12-20T01:47:58;5.90;99.90
32640;DHT22;19049;52.524;11.468;2022-12-20T01:50:24;6.00;99.90
32640;DHT22;19049;52.524;11.468;2022-12-20T01:52:51;6.00;99.90
32640;DHT22;19049;52.524;11.468;2022-12-20T01:55:22;6.10;99.90
32640;DHT22;19049;52.524;11.468;2022-12-20T01:57:56;6.20;99.90
32640;DHT22;19049;52.524;11.468;2022-12-20T02:00:23;6.20;99.90
32640;DHT22;19049;52.524;11.468;2022-12-20T02:02:49;6.30;99.90
32640;DHT22;19049;52.524;11.468;2022-12-20T02:05:17;6.30;99.90
32640;DHT22;19049;52.524;11.468;2022-12-20T02:07:46;6.30;99.90
32640;DHT22;19049;52.524;11.468;2022-12-20T02:10:19;6.40;99.90
32640;DHT22;19049;52.524;11.468;2022-12-20T02:12:49;6.40;99.90
32640;DHT22;19049;52.524;11.468;2022-12-20T02:15:40;6.40;99.90
32640;DHT22;19049;52.524;11.468;2022-12-20T02:18:40;6.30;99.90
32640;DHT22;19049;52.524;11.468;2022-12-20T02:30:13;6.00;99.90
32640;DHT22;19049;52.524;11.468;2022-12-20T02:32:45;6.00;99.90
32640;DHT22;19049;52.524;11.468;2022-12-20T02:35:14;5.90;99.90
32640;DHT22;19049;52.524;11.468;2022-12-20T02:37:47;5.90;99.80
32640;DHT22;19049;52.524;11.468;2022-12-20T02:40:21;5.80;99.60
32640;DHT22;19049;52.524;11.468;2022-12-20T02:42:52;5.70;99.50
32640;DHT22;19049;52.524;11.468;2022-12-20T02:45:25;5.60;99.40
32640;DHT22;19049;52.524;11.468;2022-12-20T02:48:04;5.50;99.50
32640;DHT22;19049;52.524;11.468;2022-12-20T02:50:41;5.50;99.60
32640;DHT22;19049;52.524;11.468;2022-12-20T02:53:09;5.40;99.60
32640;DHT22;19049;52.524;11.468;2022-12-20T02:58:37;5.30;99.90
32640;DHT22;19049;52.524;11.468;2022-12-20T03:01:05;5.30;99.90
32640;DHT22;19049;52.524;11.468;2022-12-20T03:03:34;5.30;99.90
32640;DHT22;19049;52.524;11.468;2022-12-20T03:06:03;5.40;99.90
32640;DHT22;19049;52.524;11.468;2022-12-20T03:08:29;5.40;99.90
32640;DHT22;19049;52.524;11.468;2022-12-20T03:10:55;5.50;99.90
32640;DHT22;19049;52.524;11.468;2022-12-20T03:13:23;5.60;99.90
32640;DHT22;19049;52.524;11.468;2022-12-20T03:15:49;5.70;99.90
32640;DHT22;19049;52.524;11.468;2022-12-20T03:18:15;5.80;99.90
32640;DHT22;19049;52.524;11.468;2022-12-20T03:20:43;5.90;99.90
32640;DHT22;19049;52.524;11.468;2022-12-20T03:23:09;5.90;99.90
32640;DHT22;19049;52.524;11.468;2022-12-20T03:25:34;6.10;99.90
32640;DHT22;19049;52.524;11.468;2022-12-20T03:28:00;6.20;99.90
32640;DHT22;19049;52.524;11.468;2022-12-20T03:30:26;6.20;99.90
32640;DHT22;19049;52.524;11.468;2022-12-20T03:32:52;6.30;99.90
32640;DHT22;19049;52.524;11.468;2022-12-20T03:35:20;6.40;99.90
32640;DHT22;19049;52.524;11.468;2022-12-20T03:37:45;6.50;99.90
32640;DHT22;19049;52.524;11.468;2022-12-20T03:40:14;6.60;99.90
32640;DHT22;19049;52.524;11.468;2022-12-20T03:42:40;6.70;99.90
32640;DHT22;19049;52.524;11.468;2022-12-20T03:45:08;6.70;99.90
32640;DHT22;19049;52.524;11.468;2022-12-20T03:47:37;6.80;99.90
32640;DHT22;19049;52.524;11.468;2022-12-20T03:50:05;6.80;99.90
32640;DHT22;19049;52.524;11.468;2022-12-20T03:52:33;6.90;99.90
32640;DHT22;19049;52.524;11.468;2022-12-20T03:54:59;6.90;99.90
32640;DHT22;19049;52.524;11.468;2022-12-20T03:57:25;6.90;99.90
32640;DHT22;19049;52.524;11.468;2022-12-20T03:59:50;7.00;99.90
32640;DHT22;19049;52.524;11.468;2022-12-20T04:02:18;7.00;99.90
32640;DHT22;19049;52.524;11.468;2022-12-20T04:04:47;7.00;99.90
32640;DHT22;19049;52.524;11.468;2022-12-20T04:07:13;7.00;99.90
32640;DHT22;19049;52.524;11.468;2022-12-20T04:09:41;7.00;99.90
32640;DHT22;19049;52.524;11.468;2022-12-20T04:12:06;7.00;99.90
32640;DHT22;19049;52.524;11.468;2022-12-20T04:14:32;7.10;99.90
32640;DHT22;19049;52.524;11.468;2022-12-20T04:17:04;7.10;99.90
32640;DHT22;19049;52.524;11.468;2022-12-20T04:19:30;7.10;99.90
32640;DHT22;19049;52.524;11.468;2022-12-20T04:22:05;7.20;99.90
32640;DHT22;19049;52.524;11.468;2022-12-20T04:24:33;7.20;99.90
32640;DHT22;19049;52.524;11.468;2022-12-20T04:27:01;7.20;99.90
32640;DHT22;19049;52.524;11.468;2022-12-20T04:29:30;7.30;99.90
32640;DHT22;19049;52.524;11.468;2022-12-20T04:31:58;7.30;99.90
32640;DHT22;19049;52.524;11.468;2022-12-20T04:34:23;7.40;99.90
32640;DHT22;19049;52.524;11.468;2022-12-20T04:36:49;7.40;99.90
32640;DHT22;19049;52.524;11.468;2022-12-20T04:39:15;7.50;99.90
32640;DHT22;19049;52.524;11.468;2022-12-20T04:41:40;7.50;99.90
32640;DHT22;19049;52.524;11.468;2022-12-20T04:44:06;7.50;99.90
32640;DHT22;19049;52.524;11.468;2022-12-20T04:46:32;7.60;99.90
32640;DHT22;19049;52.524;11.468;2022-12-20T04:48:57;7.60;99.90
32640;DHT22;19049;52.524;11.468;2022-12-20T04:51:23;7.60;99.90
32640;DHT22;19049;52.524;11.468;2022-12-20T04:53:54;7.70;99.90
32640;DHT22;19049;52.524;11.468;2022-12-20T04:56:24;7.70;99.90
32640;DHT22;19049;52.524;11.468;2022-12-20T04:58:53;7.70;99.90
32640;DHT22;19049;52.524;11.468;2022-12-20T05:01:29;7.70;99.90
32640;DHT22;19049;52.524;11.468;2022-12-20T05:03:58;7.70;99.90
32640;DHT22;19049;52.524;11.468;2022-12-20T05:06:26;7.80;99.90
32640;DHT22;19049;52.524;11.468;2022-12-20T05:08:51;7.80;99.90
32640;DHT22;19049;52.524;11.468;2022-12-20T05:11:17;7.80;99.90
32640;DHT22;19049;52.524;11.468;2022-12-20T05:13:43;7.80;99.90
32640;DHT22;19049;52.524;11.468;2022-12-20T05:16:08;7.90;99.90
32640;DHT22;19049;52.524;11.468;2022-12-20T05:18:36;7.90;99.90
32640;DHT22;19049;52.524;11.468;2022-12-20T05:21:04;7.90;99.90
32640;DHT22;19049;52.524;11.468;2022-12-20T05:23:48;8.00;99.90
32640;DHT22;19049;52.524;11.468;2022-12-20T05:26:35;8.00;99.90
32640;DHT22;19049;52.524;11.468;2022-12-20T05:29:02;8.00;99.90
32640;DHT22;19049;52.524;11.468;2022-12-20T05:31:28;8.00;99.90
32640;DHT22;19049;52.524;11.468;2022-12-20T05:33:56;8.10;99.90
32640;DHT22;19049;52.524;11.468;2022-12-20T05:36:22;8.10;99.90
32640;DHT22;19049;52.524;11.468;2022-12-20T05:38:47;8.10;99.90
32640;DHT22;19049;52.524;11.468;2022-12-20T05:41:15;8.10;99.90
32640;DHT22;19049;52.524;11.468;2022-12-20T05:43:41;8.10;99.90
32640;DHT22;19049;52.524;11.468;2022-12-20T05:46:07;8.10;99.90
32640;DHT22;19049;52.524;11.468;2022-12-20T05:48:35;8.20;99.90
32640;DHT22;19049;52.524;11.468;2022-12-20T05:51:01;8.10;99.90
32640;DHT22;19049;52.524;11.468;2022-12-20T05:53:27;8.20;99.90
32640;DHT22;19049;52.524;11.468;2022-12-20T05:55:53;8.20;99.90
32640;DHT22;19049;52.524;11.468;2022-12-20T05:58:20;8.20;99.90
32640;DHT22;19049;52.524;11.468;2022-12-20T06:00:45;8.20;99.90
32640;DHT22;19049;52.524;11.468;2022-12-20T06:03:12;8.30;99.90
32640;DHT22;19049;52.524;11.468;2022-12-20T06:05:40;8.20;99.90
32640;DHT22;19049;52.524;11.468;2022-12-20T06:08:06;8.30;99.90
32640;DHT22;19049;52.524;11.468;2022-12-20T06:10:32;8.30;99.90
32640;DHT22;19049;52.524;11.468;2022-12-20T06:13:00;8.30;99.90
32640;DHT22;19049;52.524;11.468;2022-12-20T06:15:26;8.30;99.90
32640;DHT22;19049;52.524;11.468;2022-12-20T06:17:51;8.30;99.90
32640;DHT22;19049;52.524;11.468;2022-12-20T06:20:17;8.40;99.90
32640;DHT22;19049;52.524;11.468;2022-12-20T06:22:43;8.40;99.90
32640;DHT22;19049;52.524;11.468;2022-12-20T06:25:42;8.40;99.90
32640;DHT22;19049;52.524;11.468;2022-12-20T06:35:22;8.50;99.90
32640;DHT22;19049;52.524;11.468;2022-12-20T07:12:52;8.50;99.90
32640;DHT22;19049;52.524;11.468;2022-12-20T07:29:33;8.60;99.90
32640;DHT22;19049;52.524;11.468;2022-12-20T07:32:51;8.60;99.90
32640;DHT22;19049;52.524;11.468;2022-12-20T07:38:15;8.60;99.90
32640;DHT22;19049;52.524;11.468;2022-12-20T07:40:46;8.60;99.90
32640;DHT22;19049;52.524;11.468;2022-12-20T07:49:53;8.60;99.90
32640;DHT22;19049;52.524;11.468;2022-12-20T07:52:32;8.60;99.90
32640;DHT22;19049;52.524;11.468;2022-12-20T07:55:12;8.60;99.90
32640;DHT22;19049;52.524;11.468;2022-12-20T07:58:05;8.60;99.90
32640;DHT22;19049;52.524;11.468;2022-12-20T08:04:04;8.60;99.90
32640;DHT22;19049;52.524;11.468;2022-12-20T08:07:27;8.60;99.90
32640;DHT22;19049;52.524;11.468;2022-12-20T08:16:57;8.70;99.90
32640;DHT22;19049;52.524;11.468;2022-12-20T08:23:07;8.70;99.90
32640;DHT22;19049;52.524;11.468;2022-12-20T08:32:24;8.80;99.90
32640;DHT22;19049;52.524;11.468;2022-12-20T08:34:56;8.80;99.90
32640;DHT22;19049;52.524;11.468;2022-12-20T08:37:22;8.80;99.90
32640;DHT22;19049;52.524;11.468;2022-12-20T08:39:56;8.80;99.90
32640;DHT22;19049;52.524;11.468;2022-12-20T08:42:24;8.80;99.90
32640;DHT22;19049;52.524;11.468;2022-12-20T08:48:48;8.90;99.90
32640;DHT22;19049;52.524;11.468;2022-12-20T08:51:22;8.90;99.90
32640;DHT22;19049;52.524;11.468;2022-12-20T08:54:26;8.90;99.90
32640;DHT22;19049;52.524;11.468;2022-12-20T08:56:52;9.00;99.90
32640;DHT22;19049;52.524;11.468;2022-12-20T08:59:36;9.00;99.90
32640;DHT22;19049;52.524;11.468;2022-12-20T09:02:25;9.10;99.90
32640;DHT22;19049;52.524;11.468;2022-12-20T09:21:38;9.20;99.90
32640;DHT22;19049;52.524;11.468;2022-12-20T09:27:11;9.30;99.90
32640;DHT22;19049;52.524;11.468;2022-12-20T09:29:39;9.30;99.90
32640;DHT22;19049;52.524;11.468;2022-12-20T09:32:16;9.30;99.90
32640;DHT22;19049;52.524;11.468;2022-12-20T09:38:38;9.40;99.90
32640;DHT22;19049;52.524;11.468;2022-12-20T09:45:05;9.40;99.90
32640;DHT22;19049;52.524;11.468;2022-12-20T09:47:53;9.50;99.90
32640;DHT22;19049;52.524;11.468;2022-12-20T09:54:15;9.60;99.90
32640;DHT22;19049;52.524;11.468;2022-12-20T09:56:59;9.60;99.90
32640;DHT22;19049;52.524;11.468;2022-12-20T09:59:40;9.70;99.90
32640;DHT22;19049;52.524;11.468;2022-12-20T10:02:21;9.70;99.90
32640;DHT22;19049;52.524;11.468;2022-12-20T10:04:52;9.70;99.90
32640;DHT22;19049;52.524;11.468;2022-12-20T10:10:48;9.70;99.90
32640;DHT22;19049;52.524;11.468;2022-12-20T10:13:28;9.70;99.90
32640;DHT22;19049;52.524;11.468;2022-12-20T10:16:04;9.70;99.90
32640;DHT22;19049;52.524;11.468;2022-12-20T10:24:34;9.70;99.90
32640;DHT22;19049;52.524;11.468;2022-12-20T10:27:20;9.70;99.90
32640;DHT22;19049;52.524;11.468;2022-12-20T10:29:51;9.70;99.90
32640;DHT22;19049;52.524;11.468;2022-12-20T10:32:26;9.70;99.90
32640;DHT22;19049;52.524;11.468;2022-12-20T10:37:35;9.80;99.90
32640;DHT22;19049;52.524;11.468;2022-12-20T10:40:03;9.90;99.90
32640;DHT22;19049;52.524;11.468;2022-12-20T10:42:38;9.90;99.90
32640;DHT22;19049;52.524;11.468;2022-12-20T10:47:47;10.00;99.90
32640;DHT22;19049;52.524;11.468;2022-12-20T10:50:19;10.00;99.90
32640;DHT22;19049;52.524;11.468;2022-12-20T10:53:23;10.00;99.90
32640;DHT22;19049;52.524;11.468;2022-12-20T10:55:48;10.10;99.90
32640;DHT22;19049;52.524;11.468;2022-12-20T10:58:33;10.10;99.90
32640;DHT22;19049;52.524;11.468;2022-12-20T11:01:15;10.10;99.90
32640;DHT22;19049;52.524;11.468;2022-12-20T11:06:18;10.10;99.90
32640;DHT22;19049;52.524;11.468;2022-12-20T11:08:44;10.20;99.90
32640;DHT22;19049;52.524;11.468;2022-12-20T11:11:28;10.20;99.90
32640;DHT22;19049;52.524;11.468;2022-12-20T11:13:55;10.20;99.90
32640;DHT22;19049;52.524;11.468;2022-12-20T11:16:39;10.20;99.90
32640;DHT22;19049;52.524;11.468;2022-12-20T11:19:34;10.30;99.90
32640;DHT22;19049;52.524;11.468;2022-12-20T11:25:10;10.30;99.90
32640;DHT22;19049;52.524;11.468;2022-12-20T11:27:55;10.40;99.90
32640;DHT22;19049;52.524;11.468;2022-12-20T11:31:01;10.40;99.90
32640;DHT22;19049;52.524;11.468;2022-12-20T11:42:17;10.40;99.90
32640;DHT22;19049;52.524;11.468;2022-12-20T11:53:38;10.50;99.90
32640;DHT22;19049;52.524;11.468;2022-12-20T11:56:25;10.50;99.90
32640;DHT22;19049;52.524;11.468;2022-12-20T12:01:25;10.60;99.90
32640;DHT22;19049;52.524;11.468;2022-12-20T12:04:05;10.60;99.90
32640;DHT22;19049;52.524;11.468;2022-12-20T12:06:43;10.60;99.90
32640;DHT22;19049;52.524;11.468;2022-12-20T12:09:13;10.60;99.90
32640;DHT22;19049;52.524;11.468;2022-12-20T12:12:07;10.60;99.90
32640;DHT22;19049;52.524;11.468;2022-12-20T12:14:54;10.60;99.90
32640;DHT22;19049;52.524;11.468;2022-12-20T12:17:28;10.60;99.90
32640;DHT22;19049;52.524;11.468;2022-12-20T12:20:05;10.60;99.90
32640;DHT22;19049;52.524;11.468;2022-12-20T12:22:34;10.60;99.90
32640;DHT22;19049;52.524;11.468;2022-12-20T12:25:07;10.60;99.90
32640;DHT22;19049;52.524;11.468;2022-12-20T12:27:35;10.60;99.90
32640;DHT22;19049;52.524;11.468;2022-12-20T12:30:00;10.60;99.90
32640;DHT22;19049;52.524;11.468;2022-12-20T12:32:39;10.60;99.90
32640;DHT22;19049;52.524;11.468;2022-12-20T12:40:44;10.60;99.90
32640;DHT22;19049;52.524;11.468;2022-12-20T12:43:20;10.50;99.90
32640;DHT22;19049;52.524;11.468;2022-12-20T12:45:58;10.50;99.90
32640;DHT22;19049;52.524;11.468;2022-12-20T12:48:49;10.60;99.90
32640;DHT22;19049;52.524;11.468;2022-12-20T12:51:23;10.60;99.90
32640;DHT22;19049;52.524;11.468;2022-12-20T12:54:02;10.60;99.90
32640;DHT22;19049;52.524;11.468;2022-12-20T12:56:30;10.60;99.90
32640;DHT22;19049;52.524;11.468;2022-12-20T13:07:00;10.60;99.90
32640;DHT22;19049;52.524;11.468;2022-12-20T13:11:56;10.60;99.70
32640;DHT22;19049;52.524;11.468;2022-12-20T13:19:34;10.50;99.80
32640;DHT22;19049;52.524;11.468;2022-12-20T13:24:55;10.50;99.80
32640;DHT22;19049;52.524;11.468;2022-12-20T13:27:31;10.40;99.60
32640;DHT22;19049;52.524;11.468;2022-12-20T13:30:24;10.40;99.40
32640;DHT22;19049;52.524;11.468;2022-12-20T13:32:52;10.40;99.40
32640;DHT22;19049;52.524;11.468;2022-12-20T13:45:40;10.20;99.60
32640;DHT22;19049;52.524;11.468;2022-12-20T13:48:14;10.20;99.70
32640;DHT22;19049;52.524;11.468;2022-12-20T13:50:48;10.10;99.60
32640;DHT22;19049;52.524;11.468;2022-12-20T13:53:19;10.10;99.50
32640;DHT22;19049;52.524;11.468;2022-12-20T13:55:45;10.10;99.50
32640;DHT22;19049;52.524;11.468;2022-12-20T13:58:34;10.00;99.50
32640;DHT22;19049;52.524;11.468;2022-12-20T14:01:05;10.00;99.50
32640;DHT22;19049;52.524;11.468;2022-12-20T14:03:40;10.00;99.60
32640;DHT22;19049;52.524;11.468;2022-12-20T14:06:09;9.90;99.70
32640;DHT22;19049;52.524;11.468;2022-12-20T14:08:45;9.90;99.80
32640;DHT22;19049;52.524;11.468;2022-12-20T14:11:23;9.80;99.70
32640;DHT22;19049;52.524;11.468;2022-12-20T14:13:57;9.80;99.70
32640;DHT22;19049;52.524;11.468;2022-12-20T14:16:24;9.80;99.80
32640;DHT22;19049;52.524;11.468;2022-12-20T14:21:28;9.70;99.70
32640;DHT22;19049;52.524;11.468;2022-12-20T14:23:56;9.60;99.80
32640;DHT22;19049;52.524;11.468;2022-12-20T14:26:26;9.60;99.70
32640;DHT22;19049;52.524;11.468;2022-12-20T14:28:55;9.60;99.80
32640;DHT22;19049;52.524;11.468;2022-12-20T14:31:34;9.60;99.90
32640;DHT22;19049;52.524;11.468;2022-12-20T14:34:25;9.60;99.70
32640;DHT22;19049;52.524;11.468;2022-12-20T14:36:50;9.50;99.90
32640;DHT22;19049;52.524;11.468;2022-12-20T14:39:28;9.50;99.90
32640;DHT22;19049;52.524;11.468;2022-12-20T14:44:26;9.50;99.90
32640;DHT22;19049;52.524;11.468;2022-12-20T14:47:35;9.50;99.90
32640;DHT22;19049;52.524;11.468;2022-12-20T14:49:59;9.40;99.80
32640;DHT22;19049;52.524;11.468;2022-12-20T14:55:03;9.50;99.90
32640;DHT22;19049;52.524;11.468;2022-12-20T14:57:48;9.50;99.90
32640;DHT22;19049;52.524;11.468;2022-12-20T15:00:27;9.50;99.90
32640;DHT22;19049;52.524;11.468;2022-12-20T15:10:39;9.50;99.80
32640;DHT22;19049;52.524;11.468;2022-12-20T15:13:11;9.50;99.90
32640;DHT22;19049;52.524;11.468;2022-12-20T15:15:38;9.40;99.90
32640;DHT22;19049;52.524;11.468;2022-12-20T15:18:15;9.40;99.90
32640;DHT22;19049;52.524;11.468;2022-12-20T15:20:42;9.40;99.90
32640;DHT22;19049;52.524;11.468;2022-12-20T15:23:15;9.40;99.90
32640;DHT22;19049;52.524;11.468;2022-12-20T15:25:41;9.30;99.90
32640;DHT22;19049;52.524;11.468;2022-12-20T15:28:19;9.30;99.90
32640;DHT22;19049;52.524;11.468;2022-12-20T15:30:45;9.30;99.90
32640;DHT22;19049;52.524;11.468;2022-12-20T15:33:15;9.30;99.90
32640;DHT22;19049;52.524;11.468;2022-12-20T15:35:41;9.30;99.90
32640;DHT22;19049;52.524;11.468;2022-12-20T15:38:13;9.30;99.90
32640;DHT22;19049;52.524;11.468;2022-12-20T15:40:41;9.20;99.90
32640;DHT22;19049;52.524;11.468;2022-12-20T15:43:15;9.20;99.90
32640;DHT22;19049;52.524;11.468;2022-12-20T15:45:42;9.20;99.90
32640;DHT22;19049;52.524;11.468;2022-12-20T15:48:16;9.20;99.90
32640;DHT22;19049;52.524;11.468;2022-12-20T15:50:47;9.20;99.90
32640;DHT22;19049;52.524;11.468;2022-12-20T15:53:16;9.30;99.90
32640;DHT22;19049;52.524;11.468;2022-12-20T15:55:44;9.20;99.90
32640;DHT22;19049;52.524;11.468;2022-12-20T15:58:09;9.30;99.90
32640;DHT22;19049;52.524;11.468;2022-12-20T16:00:39;9.30;99.90
32640;DHT22;19049;52.524;11.468;2022-12-20T16:03:19;9.30;99.90
32640;DHT22;19049;52.524;11.468;2022-12-20T16:05:46;9.30;99.90
32640;DHT22;19049;52.524;11.468;2022-12-20T16:08:12;9.40;99.90
32640;DHT22;19049;52.524;11.468;2022-12-20T16:10:38;9.40;99.90
32640;DHT22;19049;52.524;11.468;2022-12-20T16:13:08;9.40;99.90
32640;DHT22;19049;52.524;11.468;2022-12-20T16:15:34;9.50;99.90
32640;DHT22;19049;52.524;11.468;2022-12-20T16:18:00;9.40;99.90
32640;DHT22;19049;52.524;11.468;2022-12-20T16:20:26;9.50;99.90
32640;DHT22;19049;52.524;11.468;2022-12-20T16:22:53;9.50;99.90
32640;DHT22;19049;52.524;11.468;2022-12-20T16:25:27;9.50;99.90
32640;DHT22;19049;52.524;11.468;2022-12-20T16:27:52;9.50;99.90
32640;DHT22;19049;52.524;11.468;2022-12-20T16:30:18;9.50;99.90
32640;DHT22;19049;52.524;11.468;2022-12-20T16:32:44;9.50;99.90
32640;DHT22;19049;52.524;11.468;2022-12-20T16:37:46;9.50;99.90
32640;DHT22;19049;52.524;11.468;2022-12-20T16:40:15;9.50;99.90
32640;DHT22;19049;52.524;11.468;2022-12-20T16:42:40;9.50;99.90
32640;DHT22;19049;52.524;11.468;2022-12-20T16:45:20;9.40;99.90
32640;DHT22;19049;52.524;11.468;2022-12-20T16:47:47;9.40;99.90
32640;DHT22;19049;52.524;11.468;2022-12-20T16:50:16;9.40;99.90
32640;DHT22;19049;52.524;11.468;2022-12-20T16:52:46;9.30;99.80
32640;DHT22;19049;52.524;11.468;2022-12-20T16:55:23;9.30;99.90
32640;DHT22;19049;52.524;11.468;2022-12-20T16:57:49;9.30;99.90
32640;DHT22;19049;52.524;11.468;2022-12-20T17:00:23;9.30;99.90
32640;DHT22;19049;52.524;11.468;2022-12-20T17:02:52;9.30;99.90
32640;DHT22;19049;52.524;11.468;2022-12-20T17:05:25;9.20;99.90
32640;DHT22;19049;52.524;11.468;2022-12-20T17:07:52;9.30;99.90
32640;DHT22;19049;52.524;11.468;2022-12-20T17:10:18;9.30;99.90
32640;DHT22;19049;52.524;11.468;2022-12-20T17:12:55;9.30;99.90
32640;DHT22;19049;52.524;11.468;2022-12-20T17:15:29;9.30;99.90
32640;DHT22;19049;52.524;11.468;2022-12-20T17:17:56;9.30;99.90
32640;DHT22;19049;52.524;11.468;2022-12-20T17:20:23;9.30;99.90
32640;DHT22;19049;52.524;11.468;2022-12-20T17:22:53;9.30;99.90
32640;DHT22;19049;52.524;11.468;2022-12-20T17:25:27;9.30;99.90
32640;DHT22;19049;52.524;11.468;2022-12-20T17:27:53;9.30;99.90
32640;DHT22;19049;52.524;11.468;2022-12-20T17:30:23;9.40;99.90
32640;DHT22;19049;52.524;11.468;2022-12-20T17:32:52;9.40;99.90
32640;DHT22;19049;52.524;11.468;2022-12-20T17:37:52;9.30;99.90
32640;DHT22;19049;52.524;11.468;2022-12-20T17:40:24;9.40;99.90
32640;DHT22;19049;52.524;11.468;2022-12-20T17:42:50;9.40;99.90
32640;DHT22;19049;52.524;11.468;2022-12-20T17:47:51;9.40;99.90
32640;DHT22;19049;52.524;11.468;2022-12-20T17:50:17;9.40;99.90
32640;DHT22;19049;52.524;11.468;2022-12-20T17:52:44;9.40;99.90
32640;DHT22;19049;52.524;11.468;2022-12-20T17:55:25;9.40;99.90
32640;DHT22;19049;52.524;11.468;2022-12-20T17:57:52;9.40;99.90
32640;DHT22;19049;52.524;11.468;2022-12-20T18:00:30;9.40;99.90
32640;DHT22;19049;52.524;11.468;2022-12-20T18:02:56;9.40;99.90
32640;DHT22;19049;52.524;11.468;2022-12-20T18:05:23;9.50;99.90
32640;DHT22;19049;52.524;11.468;2022-12-20T18:07:52;9.40;99.90
32640;DHT22;19049;52.524;11.468;2022-12-20T18:10:20;9.50;99.90
32640;DHT22;19049;52.524;11.468;2022-12-20T18:12:49;9.50;99.90
32640;DHT22;19049;52.524;11.468;2022-12-20T18:15:22;9.50;99.90
32640;DHT22;19049;52.524;11.468;2022-12-20T18:17:51;9.50;99.90
32640;DHT22;19049;52.524;11.468;2022-12-20T18:20:19;9.50;99.90
32640;DHT22;19049;52.524;11.468;2022-12-20T18:22:47;9.50;99.90
32640;DHT22;19049;52.524;11.468;2022-12-20T18:25:12;9.40;99.90
32640;DHT22;19049;52.524;11.468;2022-12-20T18:27:42;9.50;99.90
32640;DHT22;19049;52.524;11.468;2022-12-20T18:30:11;9.50;99.90
32640;DHT22;19049;52.524;11.468;2022-12-20T18:32:38;9.50;99.90
32640;DHT22;19049;52.524;11.468;2022-12-20T18:35:06;9.50;99.90
32640;DHT22;19049;52.524;11.468;2022-12-20T18:37:32;9.50;99.90
32640;DHT22;19049;52.524;11.468;2022-12-20T18:40:00;9.50;99.90
32640;DHT22;19049;52.524;11.468;2022-12-20T18:42:26;9.50;99.90
32640;DHT22;19049;52.524;11.468;2022-12-20T18:44:52;9.50;99.90
32640;DHT22;19049;52.524;11.468;2022-12-20T18:47:17;9.50;99.90
32640;DHT22;19049;52.524;11.468;2022-12-20T18:49:43;9.50;99.90
32640;DHT22;19049;52.524;11.468;2022-12-20T18:52:12;9.50;99.90
32640;DHT22;19049;52.524;11.468;2022-12-20T18:54:44;9.50;99.90
32640;DHT22;19049;52.524;11.468;2022-12-20T18:57:12;9.50;99.90
32640;DHT22;19049;52.524;11.468;2022-12-20T18:59:43;9.50;99.90
32640;DHT22;19049;52.524;11.468;2022-12-20T19:02:10;9.40;99.90
32640;DHT22;19049;52.524;11.468;2022-12-20T19:04:36;9.40;99.90
32640;DHT22;19049;52.524;11.468;2022-12-20T19:07:02;9.30;99.90
32640;DHT22;19049;52.524;11.468;2022-12-20T19:09:27;9.30;99.90
32640;DHT22;19049;52.524;11.468;2022-12-20T19:11:55;9.20;99.90
32640;DHT22;19049;52.524;11.468;2022-12-20T19:14:23;9.20;99.90
32640;DHT22;19049;52.524;11.468;2022-12-20T19:16:52;9.20;99.90
32640;DHT22;19049;52.524;11.468;2022-12-20T19:19:24;9.10;99.90
32640;DHT22;19049;52.524;11.468;2022-12-20T19:21:53;9.10;99.90
32640;DHT22;19049;52.524;11.468;2022-12-20T19:24:26;9.10;99.90
32640;DHT22;19049;52.524;11.468;2022-12-20T19:26:52;9.10;99.90
32640;DHT22;19049;52.524;11.468;2022-12-20T19:29:20;9.10;99.90
32640;DHT22;19049;52.524;11.468;2022-12-20T19:31:45;9.00;99.90
32640;DHT22;19049;52.524;11.468;2022-12-20T19:34:14;9.00;99.90
32640;DHT22;19049;52.524;11.468;2022-12-20T19:36:42;9.00;99.90
32640;DHT22;19049;52.524;11.468;2022-12-20T19:39:19;9.00;99.90
32640;DHT22;19049;52.524;11.468;2022-12-20T19:41:47;8.90;99.90
32640;DHT22;19049;52.524;11.468;2022-12-20T19:44:15;8.90;99.90
32640;DHT22;19049;52.524;11.468;2022-12-20T19:46:43;8.90;99.90